createdAt,value
2017-05-25T07:00:21.236Z,21.15
2017-05-25T07:01:23.296Z,21.18
2017-05-25T07:02:24.965Z,21.21
2017-05-25T07:03:26.676Z,21.30
2017-05-25T07:04:28.367Z,21.25
2017-05-25T07:05:30.094Z,21.39
2017-05-25T07:06:31.811Z,21.48
2017-05-25T07:07:33.536Z,21.43
2017-05-25T07:08:35.272Z,21.54
2017-05-25T07:09:37.011Z,21.62
2017-05-25T07:10:38.802Z,21.69
2017-05-25T07:11:40.513Z,21.82
2017-05-25T07:12:42.394Z,21.80
2017-05-25T07:13:44.207Z,21.80
2017-05-25T07:14:45.929Z,21.92
2017-05-25T07:15:47.701Z,21.93
2017-05-25T07:16:49.501Z,22.02
2017-05-25T07:17:51.205Z,22.17
2017-05-25T07:19:32.490Z,22.23
2017-05-25T07:20:34.182Z,22.25
2017-05-25T07:21:35.945Z,22.26
2017-05-25T07:22:37.623Z,22.32
2017-05-25T07:23:39.440Z,22.43
2017-05-25T07:24:41.222Z,22.54
2017-05-25T07:25:43.016Z,22.51
2017-05-25T07:26:44.668Z,22.51
2017-05-25T07:27:46.363Z,22.53
2017-05-25T07:28:48.054Z,22.62
2017-05-25T07:29:49.809Z,22.62
2017-05-25T07:30:51.513Z,22.48
2017-05-25T07:31:53.191Z,22.51
2017-05-25T07:32:54.880Z,22.60
2017-05-25T07:33:56.605Z,22.68
2017-05-25T07:34:58.381Z,22.70
2017-05-25T07:36:00.035Z,22.75
2017-05-25T07:37:01.734Z,22.84
2017-05-25T07:38:03.436Z,22.85
2017-05-25T07:39:05.104Z,22.94
2017-05-25T07:40:06.916Z,22.93
2017-05-25T07:41:08.611Z,23.09
2017-05-25T07:42:10.311Z,23.08
2017-05-25T07:43:12.049Z,23.09
2017-05-25T07:44:13.775Z,23.18
2017-05-25T07:45:15.569Z,23.20
2017-05-25T07:46:17.299Z,23.32
2017-05-25T07:47:18.992Z,23.31
2017-05-25T07:48:20.651Z,23.40
2017-05-25T07:49:22.295Z,23.32
2017-05-25T07:50:24.054Z,23.39
2017-05-25T07:51:25.695Z,23.34
2017-05-25T07:52:27.359Z,23.40
2017-05-25T07:53:28.984Z,23.40
2017-05-25T07:54:30.701Z,23.46
2017-05-25T07:55:32.341Z,23.47
2017-05-25T07:56:34.000Z,23.46
2017-05-25T07:57:35.652Z,23.47
2017-05-25T07:58:37.349Z,23.43
2017-05-25T07:59:39.000Z,23.55
2017-05-25T08:00:40.712Z,23.58
2017-05-25T08:01:42.397Z,23.55
2017-05-25T08:02:44.035Z,23.63
2017-05-25T08:03:45.760Z,23.54
2017-05-25T08:04:47.458Z,23.58
2017-05-25T08:05:49.212Z,23.63
2017-05-25T08:06:50.862Z,23.59
2017-05-25T08:07:52.581Z,23.62
2017-05-25T08:08:54.236Z,23.59
2017-05-25T08:09:56.015Z,23.56
2017-05-25T08:10:57.689Z,23.58
2017-05-25T08:11:59.332Z,23.61
2017-05-25T08:13:01.012Z,23.61
2017-05-25T08:14:02.716Z,23.68
2017-05-25T08:15:04.371Z,23.74
2017-05-25T08:16:06.028Z,23.68
2017-05-25T08:17:07.753Z,23.80
2017-05-25T08:18:09.466Z,23.77
2017-05-25T08:19:11.167Z,23.76
2017-05-25T08:20:12.842Z,23.86
2017-05-25T08:21:14.515Z,23.78
2017-05-25T08:22:16.173Z,23.76
2017-05-25T08:23:17.893Z,23.81
2017-05-25T08:24:19.652Z,23.83
2017-05-25T08:25:21.297Z,23.86
2017-05-25T08:26:23.025Z,23.77
2017-05-25T08:27:24.702Z,23.91
2017-05-25T08:28:26.389Z,23.86
2017-05-25T08:29:28.160Z,23.87
2017-05-25T08:30:29.859Z,23.91
2017-05-25T08:31:31.539Z,24.01
2017-05-25T08:32:33.224Z,24.10
2017-05-25T08:33:34.885Z,24.20
2017-05-25T08:34:36.615Z,24.17
2017-05-25T08:35:38.264Z,24.21
2017-05-25T08:36:39.958Z,24.14
2017-05-25T08:37:41.673Z,24.08
2017-05-25T08:38:43.426Z,24.20
2017-05-25T08:39:45.141Z,24.17
2017-05-25T08:40:47.495Z,24.32
2017-05-25T08:41:49.182Z,24.36
2017-05-25T08:42:50.834Z,24.32
2017-05-25T08:43:52.639Z,24.35
2017-05-25T08:44:54.433Z,24.43
2017-05-25T08:45:56.095Z,24.35
2017-05-25T08:46:57.848Z,24.24
2017-05-25T08:47:59.556Z,24.40
2017-05-25T08:49:01.330Z,24.51
2017-05-25T08:50:03.079Z,24.40
2017-05-25T08:51:04.777Z,24.54
2017-05-25T08:52:06.590Z,24.50
2017-05-25T08:53:08.296Z,24.54
2017-05-25T08:54:10.046Z,24.58
2017-05-25T08:55:11.800Z,24.54
2017-05-25T08:56:13.506Z,24.69
2017-05-25T08:57:15.283Z,24.69
2017-05-25T08:58:17.094Z,24.78
2017-05-25T08:59:18.834Z,24.81
2017-05-25T09:00:20.529Z,24.91
2017-05-25T09:01:22.239Z,24.85
2017-05-25T09:02:24.015Z,24.95
2017-05-25T09:03:25.744Z,24.92
2017-05-25T09:04:27.604Z,24.93
2017-05-25T09:06:09.324Z,24.98
2017-05-25T09:07:11.081Z,25.01
2017-05-25T09:08:12.755Z,25.01
2017-05-25T09:09:14.435Z,25.06
2017-05-25T09:10:16.203Z,25.14
2017-05-25T09:11:17.924Z,25.13
2017-05-25T09:12:19.671Z,25.17
2017-05-25T09:13:21.347Z,25.16
2017-05-25T09:14:22.992Z,25.21
2017-05-25T09:15:24.778Z,25.29
2017-05-25T09:16:26.553Z,25.26
2017-05-25T09:17:28.244Z,25.25
2017-05-25T09:18:29.978Z,25.32
2017-05-25T09:19:31.691Z,25.38
2017-05-25T09:20:33.323Z,25.48
2017-05-25T09:21:35.124Z,25.33
2017-05-25T09:22:36.802Z,25.32
2017-05-25T09:23:38.562Z,25.35
2017-05-25T09:24:40.321Z,25.44
2017-05-25T09:25:41.991Z,25.48
2017-05-25T09:26:43.703Z,25.53
2017-05-25T09:27:45.456Z,25.53
2017-05-25T09:28:47.229Z,25.53
2017-05-25T09:29:48.922Z,25.60
2017-05-25T09:30:50.590Z,25.62
2017-05-25T09:31:52.238Z,25.65
2017-05-25T09:32:53.959Z,25.69
2017-05-25T09:33:55.717Z,25.68
2017-05-25T09:34:57.518Z,25.72
2017-05-25T09:35:59.244Z,25.75
2017-05-25T09:37:00.879Z,25.84
2017-05-25T09:38:02.526Z,25.81
2017-05-25T09:39:04.172Z,25.78
2017-05-25T09:40:05.915Z,25.81
2017-05-25T09:41:07.591Z,25.84
2017-05-25T09:42:09.288Z,25.88
2017-05-25T09:43:10.942Z,25.90
2017-05-25T09:44:12.615Z,25.98
2017-05-25T09:45:14.305Z,26.05
2017-05-25T09:46:15.973Z,26.10
2017-05-25T09:47:17.622Z,25.99
2017-05-25T09:48:19.334Z,26.02
2017-05-25T09:49:20.970Z,26.03
2017-05-25T09:50:22.679Z,26.22
2017-05-25T09:51:24.330Z,26.09
2017-05-25T09:52:26.003Z,26.09
2017-05-25T09:53:27.757Z,26.07
2017-05-25T09:54:29.451Z,26.18
2017-05-25T09:55:31.081Z,26.23
2017-05-25T09:56:32.825Z,26.22
2017-05-25T09:58:14.066Z,26.21
2017-05-25T09:59:15.763Z,26.22
2017-05-25T10:00:17.413Z,26.29
2017-05-25T10:01:19.147Z,26.28
2017-05-25T10:02:20.818Z,26.23
2017-05-25T10:03:22.522Z,26.36
2017-05-25T10:04:24.264Z,26.29
2017-05-25T10:05:26.005Z,26.41
2017-05-25T10:06:27.703Z,26.37
2017-05-25T10:07:29.396Z,26.43
2017-05-25T10:08:31.086Z,26.41
2017-05-25T10:09:32.769Z,26.40
2017-05-25T10:10:34.562Z,26.45
2017-05-25T10:11:36.269Z,26.47
2017-05-25T10:12:37.934Z,26.40
2017-05-25T10:13:39.662Z,26.38
2017-05-25T10:14:41.361Z,26.45
2017-05-25T10:15:43.119Z,26.48
2017-05-25T10:16:44.940Z,26.41
2017-05-25T10:17:46.671Z,26.43
2017-05-25T10:19:27.962Z,26.51
2017-05-25T10:20:29.625Z,26.58
2017-05-25T10:21:31.334Z,26.59
2017-05-25T10:22:32.988Z,26.48
2017-05-25T10:23:34.709Z,26.51
2017-05-25T10:24:36.403Z,26.58
2017-05-25T10:25:38.101Z,26.53
2017-05-25T10:26:39.837Z,26.53
2017-05-25T10:27:41.482Z,26.55
2017-05-25T10:28:43.185Z,26.58
2017-05-25T10:29:44.922Z,26.56
2017-05-25T10:30:46.597Z,26.58
2017-05-25T10:31:48.286Z,26.55
2017-05-25T10:32:49.998Z,26.52
2017-05-25T10:33:51.686Z,26.56
2017-05-25T10:34:53.471Z,26.53
2017-05-25T10:35:55.161Z,26.65
2017-05-25T10:36:56.875Z,26.55
2017-05-25T10:37:58.562Z,26.59
2017-05-25T10:39:00.313Z,26.65
2017-05-25T10:40:02.116Z,26.71
2017-05-25T10:41:03.811Z,26.62
2017-05-25T10:42:05.567Z,26.66
2017-05-25T10:43:07.334Z,26.63
2017-05-25T10:44:09.053Z,26.65
2017-05-25T10:45:10.734Z,26.62
2017-05-25T10:46:12.676Z,26.60
2017-05-25T10:47:14.430Z,26.51
2017-05-25T10:48:16.259Z,26.55
2017-05-25T10:49:17.964Z,26.55
2017-05-25T10:50:19.729Z,26.62
2017-05-25T10:51:21.376Z,26.47
2017-05-25T10:52:23.075Z,26.51
2017-05-25T10:53:24.829Z,26.68
2017-05-25T10:54:26.544Z,26.47
2017-05-25T10:55:28.319Z,26.47
2017-05-25T10:56:29.966Z,26.55
2017-05-25T10:57:31.718Z,26.59
2017-05-25T10:58:33.383Z,26.56
2017-05-25T10:59:35.082Z,26.56
2017-05-25T11:00:36.818Z,26.45
2017-05-25T11:01:38.528Z,26.47
2017-05-25T11:02:40.202Z,26.58
2017-05-25T11:03:41.832Z,26.48
2017-05-25T11:04:43.498Z,26.53
2017-05-25T11:05:45.225Z,26.55
2017-05-25T11:06:46.895Z,26.55
2017-05-25T11:07:48.603Z,26.53
2017-05-25T11:08:50.224Z,26.55
2017-05-25T11:09:51.886Z,26.36
2017-05-25T11:10:53.575Z,26.56
2017-05-25T11:11:55.250Z,26.47
2017-05-25T11:12:56.976Z,26.47
2017-05-25T11:13:58.630Z,26.53
2017-05-25T11:15:00.386Z,26.45
2017-05-25T11:16:02.059Z,26.48
2017-05-25T11:17:03.746Z,26.58
2017-05-25T11:18:05.443Z,26.45
2017-05-25T11:19:07.129Z,26.45
2017-05-25T11:20:08.830Z,26.56
2017-05-25T11:21:10.530Z,26.43
2017-05-25T11:22:12.238Z,26.41
2017-05-25T11:23:13.946Z,26.37
2017-05-25T11:24:15.706Z,26.40
2017-05-25T11:25:17.337Z,26.41
2017-05-25T11:26:19.000Z,26.40
2017-05-25T11:27:20.690Z,26.43
2017-05-25T11:28:22.322Z,26.38
2017-05-25T11:29:24.013Z,26.40
2017-05-25T11:30:25.690Z,26.43
2017-05-25T11:31:27.440Z,26.43
2017-05-25T11:32:29.282Z,26.41
2017-05-25T11:33:30.933Z,26.36
2017-05-25T11:34:32.618Z,26.38
2017-05-25T11:35:34.285Z,26.38
2017-05-25T11:36:35.978Z,26.40
2017-05-25T11:37:37.697Z,26.38
2017-05-25T11:38:39.346Z,26.40
2017-05-25T11:39:41.070Z,26.34
2017-05-25T11:40:42.743Z,26.40
2017-05-25T11:41:44.522Z,26.44
2017-05-25T11:42:46.230Z,26.38
2017-05-25T11:43:47.901Z,26.38
2017-05-25T11:44:49.553Z,26.40
2017-05-25T11:45:51.288Z,26.43
2017-05-25T11:46:53.048Z,26.38
2017-05-25T11:47:54.753Z,26.31
2017-05-25T11:48:56.361Z,26.29
2017-05-25T11:49:58.114Z,26.28
2017-05-25T11:50:59.836Z,26.36
2017-05-25T11:52:01.643Z,26.31
2017-05-25T11:53:03.323Z,26.26
2017-05-25T11:54:05.010Z,26.28
2017-05-25T11:55:06.722Z,26.26
2017-05-25T11:56:08.403Z,26.31
2017-05-25T11:57:10.507Z,26.28
2017-05-25T11:58:12.205Z,26.31
2017-05-25T11:59:13.994Z,26.22
2017-05-25T12:00:15.767Z,26.33
2017-05-25T12:01:17.507Z,26.22
2017-05-25T12:02:19.292Z,26.29
2017-05-25T12:03:21.083Z,26.23
2017-05-25T12:04:22.826Z,26.31
2017-05-25T12:05:24.574Z,26.33
2017-05-25T12:06:26.319Z,26.22
2017-05-25T12:07:28.114Z,26.26
2017-05-25T12:08:29.900Z,26.25
2017-05-25T12:09:31.687Z,26.22
2017-05-25T12:10:33.417Z,26.23
2017-05-25T12:11:35.117Z,26.23
2017-05-25T12:12:36.967Z,26.22
2017-05-25T12:13:38.761Z,26.23
2017-05-25T12:14:40.474Z,26.23
2017-05-25T12:15:42.232Z,26.23
2017-05-25T12:16:44.049Z,26.29
2017-05-25T12:17:45.771Z,26.22
2017-05-25T12:18:47.505Z,26.16
2017-05-25T12:19:49.189Z,26.21
2017-05-25T12:20:50.863Z,26.22
2017-05-25T12:21:52.553Z,26.21
2017-05-25T12:22:54.295Z,26.18
2017-05-25T12:23:56.019Z,26.19
2017-05-25T12:24:57.726Z,26.16
2017-05-25T12:25:59.431Z,26.21
2017-05-25T12:27:01.114Z,26.10
2017-05-25T12:28:02.875Z,26.18
2017-05-25T12:29:04.571Z,26.09
2017-05-25T12:30:06.253Z,26.16
2017-05-25T12:31:08.004Z,26.13
2017-05-25T12:32:09.699Z,26.19
2017-05-25T12:33:11.459Z,26.22
2017-05-25T12:34:13.158Z,26.19
2017-05-25T12:35:14.876Z,26.16
2017-05-25T12:36:16.610Z,26.13
2017-05-25T12:37:18.326Z,26.10
2017-05-25T12:38:20.056Z,26.03
2017-05-25T12:39:21.870Z,26.03
2017-05-25T12:40:23.576Z,26.18
2017-05-25T12:41:25.277Z,26.10
2017-05-25T12:42:26.998Z,26.03
2017-05-25T12:43:28.840Z,25.99
2017-05-25T12:44:30.632Z,26.02
2017-05-25T12:46:11.945Z,26.07
2017-05-25T12:47:13.703Z,26.13
2017-05-25T12:48:15.464Z,26.07
2017-05-25T12:49:17.176Z,26.09
2017-05-25T12:50:18.936Z,26.06
2017-05-25T12:51:20.727Z,26.05
2017-05-25T12:52:22.433Z,26.00
2017-05-25T12:53:24.117Z,25.98
2017-05-25T12:54:25.786Z,25.96
2017-05-25T12:55:27.478Z,25.98
2017-05-25T12:56:29.254Z,25.87
2017-05-25T12:57:30.966Z,25.95
2017-05-25T12:58:32.684Z,25.95
2017-05-25T12:59:34.359Z,25.90
2017-05-25T13:00:36.000Z,25.93
2017-05-25T13:01:37.707Z,25.91
2017-05-25T13:02:39.430Z,25.90
2017-05-25T13:03:41.099Z,25.95
2017-05-25T13:04:42.765Z,25.88
2017-05-25T13:05:44.448Z,25.80
2017-05-25T13:06:46.288Z,25.91
2017-05-25T13:07:48.023Z,25.91
2017-05-25T13:08:49.798Z,25.91
2017-05-25T13:09:51.572Z,25.80
2017-05-25T13:10:53.254Z,25.84
2017-05-25T13:11:55.017Z,25.78
2017-05-25T13:12:56.704Z,25.81
2017-05-25T13:13:58.490Z,25.80
2017-05-25T13:15:00.339Z,25.78
2017-05-25T13:16:02.028Z,25.83
2017-05-25T13:17:03.865Z,25.85
2017-05-25T13:18:05.554Z,25.80
2017-05-25T13:19:07.207Z,25.85
2017-05-25T13:20:08.936Z,25.85
2017-05-25T13:21:10.698Z,25.81
2017-05-25T13:22:12.372Z,25.81
2017-05-25T13:23:14.051Z,25.77
2017-05-25T13:24:15.785Z,25.78
2017-05-25T13:25:17.572Z,25.87
2017-05-25T13:26:19.332Z,25.75
2017-05-25T13:27:20.993Z,25.84
2017-05-25T13:28:22.697Z,25.84
2017-05-25T13:29:24.455Z,25.78
2017-05-25T13:30:26.158Z,25.78
2017-05-25T13:31:27.860Z,25.68
2017-05-25T13:32:29.618Z,25.75
2017-05-25T13:33:31.287Z,25.81
2017-05-25T13:34:33.014Z,25.78
2017-05-25T13:35:34.726Z,25.78
2017-05-25T13:36:36.467Z,25.78
2017-05-25T13:37:38.218Z,25.72
2017-05-25T13:38:39.907Z,25.78
2017-05-25T13:39:41.677Z,25.75
2017-05-25T13:40:43.395Z,25.81
2017-05-25T13:41:45.134Z,25.81
2017-05-25T13:42:46.932Z,25.81
2017-05-25T13:43:48.690Z,25.75
2017-05-25T13:44:50.424Z,25.77
2017-05-25T13:45:52.154Z,25.72
2017-05-25T13:46:53.863Z,25.70
2017-05-25T13:47:55.561Z,25.68
2017-05-25T13:48:57.250Z,25.70
2017-05-25T13:49:58.986Z,25.70
2017-05-25T13:51:00.743Z,25.69
2017-05-25T13:52:02.438Z,25.68
2017-05-25T13:53:04.127Z,25.66
2017-05-25T13:54:05.836Z,25.65
2017-05-25T13:55:07.541Z,25.69
2017-05-25T13:56:09.409Z,25.62
2017-05-25T13:57:50.693Z,25.65
2017-05-25T13:59:31.920Z,25.62
2017-05-25T14:00:33.621Z,25.63
2017-05-25T14:01:35.341Z,25.62
2017-05-25T14:02:37.072Z,25.59
2017-05-25T14:03:38.849Z,25.60
2017-05-25T14:04:40.699Z,25.55
2017-05-25T14:05:42.438Z,25.63
2017-05-25T14:06:44.167Z,25.69
2017-05-25T14:07:45.861Z,25.58
2017-05-25T14:08:47.555Z,25.58
2017-05-25T14:09:49.419Z,25.60
2017-05-25T14:10:51.089Z,25.55
2017-05-25T14:11:52.812Z,25.54
2017-05-25T14:12:54.489Z,25.53
2017-05-25T14:13:56.213Z,25.50
2017-05-25T14:14:57.991Z,25.54
2017-05-25T14:15:59.685Z,25.55
2017-05-25T14:17:01.515Z,25.55
2017-05-25T14:18:03.207Z,25.54
2017-05-25T14:19:04.933Z,25.44
2017-05-25T14:20:06.637Z,25.50
2017-05-25T14:21:08.399Z,25.55
2017-05-25T14:22:10.214Z,25.51
2017-05-25T14:23:11.934Z,25.51
2017-05-25T14:24:13.573Z,25.51
2017-05-25T14:25:15.325Z,25.44
2017-05-25T14:26:16.996Z,25.53
2017-05-25T14:27:18.715Z,25.50
2017-05-25T14:28:20.360Z,25.58
2017-05-25T14:29:22.025Z,25.58
2017-05-25T14:30:23.717Z,25.55
2017-05-25T14:31:25.358Z,25.55
2017-05-25T14:32:27.105Z,25.47
2017-05-25T14:33:28.781Z,25.47
2017-05-25T14:34:30.463Z,25.47
2017-05-25T14:35:32.242Z,25.50
2017-05-25T14:36:33.878Z,25.46
2017-05-25T14:37:35.601Z,25.46
2017-05-25T14:38:37.324Z,25.48
2017-05-25T14:39:39.072Z,25.44
2017-05-25T14:40:40.741Z,25.46
2017-05-25T14:41:42.467Z,25.46
2017-05-25T14:42:44.134Z,25.43
2017-05-25T14:43:45.803Z,25.50
2017-05-25T14:44:47.557Z,25.46
2017-05-25T14:45:49.218Z,25.46
2017-05-25T14:46:50.856Z,25.46
2017-05-25T14:47:52.593Z,25.48
2017-05-25T14:48:54.239Z,25.50
2017-05-25T14:49:56.047Z,25.50
2017-05-25T14:50:57.736Z,25.53
2017-05-25T14:51:59.387Z,25.48
2017-05-25T14:53:01.016Z,25.44
2017-05-25T14:54:02.673Z,25.44
2017-05-25T14:55:04.416Z,25.41
2017-05-25T14:56:06.086Z,25.47
2017-05-25T14:57:07.770Z,25.44
2017-05-25T14:58:09.439Z,25.40
2017-05-25T14:59:11.071Z,25.46
2017-05-25T15:00:15.459Z,25.41
2017-05-25T15:01:18.517Z,25.46
2017-05-25T15:02:21.050Z,25.46
2017-05-25T15:03:22.707Z,25.43
2017-05-25T15:04:24.356Z,25.44
2017-05-25T15:05:26.093Z,25.43
2017-05-25T15:06:27.778Z,25.48
2017-05-25T15:07:29.470Z,25.48
2017-05-25T15:08:31.169Z,25.41
2017-05-25T15:10:12.410Z,25.43
2017-05-25T15:11:14.119Z,25.47
2017-05-25T15:12:15.807Z,25.41
2017-05-25T15:13:17.550Z,25.47
2017-05-25T15:14:19.345Z,25.53
2017-05-25T15:15:21.107Z,25.47
2017-05-25T15:16:22.805Z,25.46
2017-05-25T15:17:24.495Z,25.44
2017-05-25T15:18:26.242Z,25.43
2017-05-25T15:19:27.966Z,25.44
2017-05-25T15:20:29.870Z,25.43
2017-05-25T15:21:31.583Z,25.43
2017-05-25T15:22:33.317Z,25.46
2017-05-25T15:23:34.986Z,25.40
2017-05-25T15:24:36.684Z,25.44
2017-05-25T15:25:38.398Z,25.40
2017-05-25T15:26:40.158Z,25.43
2017-05-25T15:27:41.867Z,25.47
2017-05-25T15:28:43.557Z,25.43
2017-05-25T15:29:45.241Z,25.43
2017-05-25T15:30:46.926Z,25.41
2017-05-25T15:31:48.781Z,25.44
2017-05-25T15:32:50.463Z,25.40
2017-05-25T15:33:52.104Z,25.40
2017-05-25T15:34:53.814Z,25.36
2017-05-25T15:35:55.490Z,25.33
2017-05-25T15:36:57.236Z,25.40
2017-05-25T15:37:58.943Z,25.29
2017-05-25T15:39:00.637Z,25.35
2017-05-25T15:40:02.368Z,25.33
2017-05-25T15:41:04.026Z,25.43
2017-05-25T15:42:05.742Z,25.36
2017-05-25T15:43:07.422Z,25.36
2017-05-25T15:44:09.153Z,25.40
2017-05-25T15:45:10.852Z,25.44
2017-05-25T15:46:12.515Z,25.36
2017-05-25T15:47:14.232Z,25.36
2017-05-25T15:48:15.902Z,25.31
2017-05-25T15:49:17.597Z,25.40
2017-05-25T15:50:19.317Z,25.36
2017-05-25T15:51:21.020Z,25.40
2017-05-25T15:52:22.776Z,25.43
2017-05-25T15:53:24.526Z,25.35
2017-05-25T15:54:26.164Z,25.40
2017-05-25T15:55:27.868Z,25.38
2017-05-25T15:56:29.594Z,25.38
2017-05-25T15:57:31.390Z,25.43
2017-05-25T15:58:33.070Z,25.35
2017-05-25T15:59:34.726Z,25.41
2017-05-25T16:00:36.378Z,25.43
2017-05-25T16:01:38.199Z,25.33
2017-05-25T16:02:39.978Z,25.31
2017-05-25T16:03:41.628Z,25.38
2017-05-25T16:04:43.275Z,25.38
2017-05-25T16:05:44.946Z,25.38
2017-05-25T16:07:26.231Z,25.33
2017-05-25T16:08:27.931Z,25.38
2017-05-25T16:09:29.615Z,25.32
2017-05-25T16:10:31.263Z,25.28
2017-05-25T16:11:32.916Z,25.38
2017-05-25T16:12:34.609Z,25.31
2017-05-25T16:13:36.254Z,25.28
2017-05-25T16:14:37.955Z,25.38
2017-05-25T16:15:39.605Z,25.40
2017-05-25T16:16:41.330Z,25.32
2017-05-25T16:17:43.046Z,25.31
2017-05-25T16:18:44.675Z,25.36
2017-05-25T16:19:46.313Z,25.38
2017-05-25T16:20:48.038Z,25.22
2017-05-25T16:21:49.678Z,25.35
2017-05-25T16:22:51.334Z,25.38
2017-05-25T16:23:53.018Z,25.33
2017-05-25T16:24:54.663Z,25.22
2017-05-25T16:25:56.369Z,25.25
2017-05-25T16:26:58.074Z,25.25
2017-05-25T16:27:59.781Z,25.21
2017-05-25T16:29:01.437Z,25.32
2017-05-25T16:30:03.196Z,25.33
2017-05-25T16:31:04.963Z,25.38
2017-05-25T16:32:06.730Z,25.25
2017-05-25T16:33:08.437Z,25.32
2017-05-25T16:34:10.094Z,25.23
2017-05-25T16:35:11.797Z,25.29
2017-05-25T16:36:13.415Z,25.31
2017-05-25T16:37:15.143Z,25.28
2017-05-25T16:38:16.825Z,25.25
2017-05-25T16:39:18.515Z,25.25
2017-05-25T16:40:20.279Z,25.23
2017-05-25T16:41:21.952Z,25.28
2017-05-25T16:42:23.723Z,25.26
2017-05-25T16:43:25.417Z,25.26
2017-05-25T16:44:27.078Z,25.21
2017-05-25T16:45:28.739Z,25.23
2017-05-25T16:46:30.473Z,25.16
2017-05-25T16:47:32.119Z,25.29
2017-05-25T16:48:33.853Z,25.18
2017-05-25T16:49:35.483Z,25.26
2017-05-25T16:50:37.147Z,25.21
2017-05-25T16:51:38.801Z,25.16
2017-05-25T16:52:40.500Z,25.21
2017-05-25T16:53:42.239Z,25.14
2017-05-25T16:54:43.881Z,25.16
2017-05-25T16:55:45.538Z,25.13
2017-05-25T16:56:47.294Z,25.17
2017-05-25T16:57:48.989Z,25.18
2017-05-25T16:58:50.683Z,25.21
2017-05-25T16:59:52.370Z,25.13
2017-05-25T17:00:54.034Z,25.16
2017-05-25T17:01:55.703Z,25.18
2017-05-25T17:02:57.392Z,25.21
2017-05-25T17:03:59.137Z,25.18
2017-05-25T17:05:00.792Z,25.16
2017-05-25T17:06:02.474Z,25.14
2017-05-25T17:07:04.168Z,25.14
2017-05-25T17:08:05.802Z,25.16
2017-05-25T17:09:07.527Z,25.14
2017-05-25T17:10:09.256Z,25.17
2017-05-25T17:11:10.931Z,25.18
2017-05-25T17:12:12.543Z,25.14
2017-05-25T17:13:14.213Z,25.13
2017-05-25T17:14:15.923Z,25.11
2017-05-25T17:15:17.582Z,25.13
2017-05-25T17:16:19.265Z,25.16
2017-05-25T17:17:20.998Z,25.16
2017-05-25T17:18:22.620Z,25.14
2017-05-25T17:19:24.281Z,25.16
2017-05-25T17:20:25.892Z,25.11
2017-05-25T17:21:27.557Z,25.16
2017-05-25T17:22:29.301Z,25.08
2017-05-25T17:23:30.979Z,25.06
2017-05-25T17:24:32.598Z,25.13
2017-05-25T17:25:34.247Z,25.11
2017-05-25T17:26:35.926Z,25.03
2017-05-25T17:27:37.704Z,25.03
2017-05-25T17:28:39.399Z,25.08
2017-05-25T17:29:41.107Z,25.14
2017-05-25T17:30:42.790Z,25.06
2017-05-25T17:31:44.494Z,25.04
2017-05-25T17:32:46.229Z,25.03
2017-05-25T17:33:48.016Z,25.06
2017-05-25T17:34:49.715Z,25.08
2017-05-25T17:35:51.403Z,25.03
2017-05-25T17:36:53.055Z,25.01
2017-05-25T17:37:54.778Z,25.06
2017-05-25T17:38:56.440Z,25.04
2017-05-25T17:39:58.145Z,24.98
2017-05-25T17:40:59.920Z,25.03
2017-05-25T17:42:01.631Z,24.98
2017-05-25T17:43:03.287Z,24.99
2017-05-25T17:44:04.957Z,25.01
2017-05-25T17:45:06.710Z,24.98
2017-05-25T17:46:08.466Z,25.01
2017-05-25T17:47:10.158Z,24.95
2017-05-25T17:48:11.853Z,24.96
2017-05-25T17:49:13.517Z,24.98
2017-05-25T17:50:15.174Z,24.92
2017-05-25T17:51:16.918Z,24.92
2017-05-25T17:52:18.694Z,24.96
2017-05-25T17:53:20.348Z,24.91
2017-05-25T17:54:21.990Z,24.89
2017-05-25T17:55:23.681Z,24.92
2017-05-25T17:56:25.355Z,24.95
2017-05-25T17:57:27.159Z,24.93
2017-05-25T17:58:28.831Z,24.89
2017-05-25T17:59:30.493Z,24.88
2017-05-25T18:00:32.186Z,24.93
2017-05-25T18:01:33.845Z,24.96
2017-05-25T18:02:35.603Z,24.95
2017-05-25T18:03:37.274Z,24.91
2017-05-25T18:04:38.950Z,24.88
2017-05-25T18:05:40.592Z,24.89
2017-05-25T18:06:42.243Z,24.91
2017-05-25T18:07:43.946Z,24.93
2017-05-25T18:08:45.623Z,24.85
2017-05-25T18:09:47.408Z,24.91
2017-05-25T18:10:49.062Z,24.85
2017-05-25T18:11:50.712Z,24.84
2017-05-25T18:12:52.394Z,24.78
2017-05-25T18:13:54.060Z,24.84
2017-05-25T18:14:55.788Z,24.78
2017-05-25T18:15:57.473Z,24.68
2017-05-25T18:16:59.177Z,24.70
2017-05-25T18:18:00.902Z,24.78
2017-05-25T18:19:02.563Z,24.78
2017-05-25T18:20:04.348Z,24.76
2017-05-25T18:21:06.082Z,24.69
2017-05-25T18:22:07.812Z,24.73
2017-05-25T18:23:09.546Z,24.77
2017-05-25T18:24:11.198Z,24.76
2017-05-25T18:25:12.980Z,24.70
2017-05-25T18:26:14.784Z,24.68
2017-05-25T18:27:16.357Z,24.66
2017-05-25T18:28:18.076Z,24.70
2017-05-25T18:29:19.790Z,24.66
2017-05-25T18:30:21.563Z,24.69
2017-05-25T18:31:23.270Z,24.55
2017-05-25T18:32:24.950Z,24.63
2017-05-25T18:33:26.700Z,24.50
2017-05-25T18:34:28.480Z,24.60
2017-05-25T18:35:30.890Z,24.63
2017-05-25T18:36:32.575Z,24.58
2017-05-25T18:37:34.206Z,24.57
2017-05-25T18:38:35.891Z,24.48
2017-05-25T18:39:37.615Z,24.45
2017-05-25T18:40:39.323Z,24.42
2017-05-25T18:41:41.030Z,24.47
2017-05-25T18:42:42.698Z,24.47
2017-05-25T18:43:44.496Z,24.50
2017-05-25T18:44:46.140Z,24.36
2017-05-25T18:45:47.899Z,24.48
2017-05-25T18:46:49.596Z,24.42
2017-05-25T18:48:31.208Z,24.40
2017-05-25T18:49:32.870Z,24.43
2017-05-25T18:50:34.555Z,24.43
2017-05-25T18:51:36.249Z,24.33
2017-05-25T18:52:37.938Z,24.32
2017-05-25T18:53:39.698Z,24.29
2017-05-25T18:54:41.343Z,24.30
2017-05-25T18:55:43.002Z,24.35
2017-05-25T18:56:44.656Z,24.26
2017-05-25T18:57:46.397Z,24.17
2017-05-25T18:58:48.058Z,24.20
2017-05-25T18:59:49.767Z,24.18
2017-05-25T19:00:51.461Z,24.17
2017-05-25T19:01:53.146Z,24.18
2017-05-25T19:02:54.851Z,24.18
2017-05-25T19:03:56.540Z,24.14
2017-05-25T19:04:58.245Z,24.14
2017-05-25T19:05:59.969Z,24.16
2017-05-25T19:07:01.633Z,24.10
2017-05-25T19:08:03.352Z,24.13
2017-05-25T19:09:04.986Z,24.11
2017-05-25T19:10:06.686Z,24.08
2017-05-25T19:11:08.394Z,24.10
2017-05-25T19:12:10.084Z,24.03
2017-05-25T19:13:11.782Z,24.02
2017-05-25T19:14:13.462Z,24.01
2017-05-25T19:15:15.157Z,24.01
2017-05-25T19:16:16.845Z,24.01
2017-05-25T19:17:18.535Z,23.98
2017-05-25T19:18:20.243Z,23.93
2017-05-25T19:19:21.908Z,23.91
2017-05-25T19:20:23.574Z,23.87
2017-05-25T19:21:25.255Z,23.95
2017-05-25T19:22:26.913Z,23.91
2017-05-25T19:23:28.610Z,23.86
2017-05-25T19:24:30.498Z,23.77
2017-05-25T19:25:32.119Z,23.86
2017-05-25T19:26:33.839Z,23.78
2017-05-25T19:27:35.553Z,23.80
2017-05-25T19:28:37.296Z,23.78
2017-05-25T19:29:38.989Z,23.71
2017-05-25T19:30:40.678Z,23.78
2017-05-25T19:31:42.341Z,23.77
2017-05-25T19:32:43.996Z,23.73
2017-05-25T19:33:45.737Z,23.76
2017-05-25T19:34:47.505Z,23.68
2017-05-25T19:35:49.164Z,23.59
2017-05-25T19:36:50.846Z,23.71
2017-05-25T19:37:52.529Z,23.62
2017-05-25T19:38:54.241Z,23.61
2017-05-25T19:39:55.949Z,23.59
2017-05-25T19:40:57.608Z,23.59
2017-05-25T19:41:59.298Z,23.55
2017-05-25T19:43:00.943Z,23.55
2017-05-25T19:44:02.632Z,23.62
2017-05-25T19:45:04.335Z,23.58
2017-05-25T19:46:06.001Z,23.56
2017-05-25T19:47:07.648Z,23.46
2017-05-25T19:48:09.294Z,23.54
2017-05-25T19:49:10.957Z,23.58
2017-05-25T19:50:12.627Z,23.48
2017-05-25T19:51:14.380Z,23.46
2017-05-25T19:52:16.120Z,23.41
2017-05-25T19:53:17.806Z,23.41
2017-05-25T19:54:19.452Z,23.41
2017-05-25T19:55:21.127Z,23.40
2017-05-25T19:56:22.846Z,23.41
2017-05-25T19:57:24.543Z,23.37
2017-05-25T19:58:26.300Z,23.40
2017-05-25T19:59:27.964Z,23.37
2017-05-25T20:00:29.712Z,23.40
2017-05-25T20:01:31.419Z,23.41
2017-05-25T20:02:33.057Z,23.36
2017-05-25T20:03:34.802Z,23.32
2017-05-25T20:04:36.511Z,23.28
2017-05-25T20:05:38.274Z,23.32
2017-05-25T20:06:39.958Z,23.28
2017-05-25T20:07:41.562Z,23.28
2017-05-25T20:08:43.216Z,23.18
2017-05-25T20:09:44.922Z,23.24
2017-05-25T20:10:46.763Z,23.18
2017-05-25T20:11:48.403Z,23.21
2017-05-25T20:12:50.080Z,23.15
2017-05-25T20:13:51.756Z,23.21
2017-05-25T20:14:53.413Z,23.17
2017-05-25T20:15:55.161Z,23.23
2017-05-25T20:16:56.939Z,23.08
2017-05-25T20:17:58.673Z,23.20
2017-05-25T20:19:00.309Z,23.18
2017-05-25T20:20:01.991Z,23.18
2017-05-25T20:21:03.728Z,23.17